EWY weather

CLOSED RAF Greenham Common
Berkshire, England, United Kingdom

Public forecast

Using degrees Celsius for public forecast. Weather courtesy of forecast.io.

Closest aviation weather report (METAR) to RAF Greenham Common

Closest report is RAF Odiham, 15.4 nm (28.5 km) SE. Retrieved 2020/06/06 04:50 UTC (27 minutes ago):

EGVO 060450Z AUTO 23011KT 9999 NCD 06/04 Q0999

Closest aviation forecast (TAF) to RAF Greenham Common

Forecast is more than 12 hours old.

Closest forecast is RAF Odiham, 15.4 nm (28.5 km) SE. Retrieved 2020/06/05 15:12 UTC (14 hours ago):

TAF TAF EGVO 051606Z 0515/0603 CNL